createdAt,value
2018-12-02T00:00:27.730Z,3.60
2018-12-02T00:02:56.089Z,3.70
2018-12-02T00:05:24.807Z,3.70
2018-12-02T00:07:53.073Z,3.70
2018-12-02T00:10:21.870Z,3.70
2018-12-02T00:12:50.131Z,3.70
2018-12-02T00:15:22.350Z,3.80
2018-12-02T00:17:51.922Z,3.80
2018-12-02T00:20:21.279Z,3.80
2018-12-02T00:22:50.609Z,3.90
2018-12-02T00:25:17.938Z,4.00
2018-12-02T00:27:49.417Z,4.00
2018-12-02T00:30:18.650Z,4.00
2018-12-02T00:32:47.063Z,4.10
2018-12-02T00:35:16.063Z,4.10
2018-12-02T00:37:45.348Z,4.00
2018-12-02T00:40:15.422Z,4.00
2018-12-02T00:42:48.536Z,4.00
2018-12-02T00:45:18.806Z,4.00
2018-12-02T00:47:47.248Z,4.00
2018-12-02T00:50:16.285Z,3.90
2018-12-02T00:52:45.631Z,3.90
2018-12-02T00:55:23.740Z,3.80
2018-12-02T00:57:52.504Z,3.80
2018-12-02T01:00:20.811Z,3.80
2018-12-02T01:02:49.807Z,3.70
2018-12-02T01:05:19.071Z,3.60
2018-12-02T01:07:47.468Z,3.60
2018-12-02T01:10:18.469Z,3.60
2018-12-02T01:12:47.348Z,3.60
2018-12-02T01:15:17.638Z,3.60
2018-12-02T01:17:45.976Z,3.60
2018-12-02T01:20:15.119Z,3.60
2018-12-02T01:22:43.547Z,3.60
2018-12-02T01:25:12.573Z,3.70
2018-12-02T01:27:41.027Z,3.70
2018-12-02T01:30:28.099Z,3.80
2018-12-02T01:32:56.419Z,3.70
2018-12-02T01:35:24.722Z,3.70
2018-12-02T01:37:53.075Z,3.80
2018-12-02T01:40:22.423Z,3.70
2018-12-02T01:42:52.356Z,3.70
2018-12-02T01:45:25.750Z,3.70
2018-12-02T01:47:56.354Z,3.80
2018-12-02T01:50:26.399Z,3.70
2018-12-02T01:52:55.559Z,3.70
2018-12-02T01:55:23.862Z,3.70
2018-12-02T01:57:52.407Z,3.70
2018-12-02T02:00:24.384Z,3.70
2018-12-02T02:02:53.029Z,3.70
2018-12-02T02:05:22.184Z,3.60
2018-12-02T02:07:50.527Z,3.50
2018-12-02T02:10:20.608Z,3.50
2018-12-02T02:12:48.899Z,3.50
2018-12-02T02:15:17.703Z,3.50
2018-12-02T02:17:46.408Z,3.40
2018-12-02T02:20:16.311Z,3.40
2018-12-02T02:22:44.923Z,3.30
2018-12-02T02:25:15.103Z,3.30
2018-12-02T02:27:44.478Z,3.10
2018-12-02T02:30:20.672Z,3.10
2018-12-02T02:32:49.041Z,3.00
2018-12-02T02:35:18.347Z,3.00
2018-12-02T02:37:46.883Z,2.90
2018-12-02T02:40:17.131Z,3.00
2018-12-02T02:42:45.499Z,2.90
2018-12-02T02:45:14.263Z,3.00
2018-12-02T02:47:42.557Z,2.90
2018-12-02T02:50:14.840Z,2.90
2018-12-02T02:52:44.242Z,2.90
2018-12-02T02:55:12.548Z,2.80
2018-12-02T02:57:40.947Z,2.90
2018-12-02T03:00:13.579Z,2.80
2018-12-02T03:02:41.932Z,2.90
2018-12-02T03:05:11.152Z,2.90
2018-12-02T03:07:39.450Z,2.80
2018-12-02T03:10:10.147Z,2.90
2018-12-02T03:12:38.452Z,2.90
2018-12-02T03:15:09.427Z,2.90
2018-12-02T03:17:37.708Z,2.90
2018-12-02T03:20:11.299Z,2.90
2018-12-02T03:22:39.906Z,2.90
2018-12-02T03:25:10.316Z,3.00
2018-12-02T03:27:38.643Z,3.00
2018-12-02T03:30:12.806Z,3.00
2018-12-02T03:32:41.208Z,3.00
2018-12-02T03:35:10.627Z,3.10
2018-12-02T03:37:38.926Z,3.20
2018-12-02T03:40:10.674Z,3.20
2018-12-02T03:42:38.974Z,3.30
2018-12-02T03:45:09.862Z,3.40
2018-12-02T03:47:38.150Z,3.40
2018-12-02T03:50:09.807Z,3.50
2018-12-02T03:52:38.107Z,3.50
2018-12-02T03:55:07.634Z,3.60
2018-12-02T03:57:35.931Z,3.60
2018-12-02T04:00:10.227Z,3.60
2018-12-02T04:02:38.515Z,3.60
2018-12-02T04:05:07.229Z,3.60
2018-12-02T04:07:35.503Z,3.70
2018-12-02T04:10:04.285Z,3.70
2018-12-02T04:12:32.570Z,3.80
2018-12-02T04:15:00.847Z,3.80
2018-12-02T04:17:29.239Z,3.80
2018-12-02T04:19:57.519Z,3.90
2018-12-02T04:22:25.785Z,3.90
2018-12-02T04:24:54.064Z,3.90
2018-12-02T04:27:22.324Z,3.80
2018-12-02T04:29:50.600Z,3.80
2018-12-02T04:32:18.875Z,3.90
2018-12-02T04:34:47.254Z,3.90
2018-12-02T04:37:15.539Z,3.90
2018-12-02T04:39:43.828Z,3.90
2018-12-02T04:42:12.111Z,3.90
2018-12-02T04:44:40.390Z,3.90
2018-12-02T04:47:08.666Z,4.00
2018-12-02T04:49:36.963Z,4.00
2018-12-02T04:52:05.282Z,4.00
2018-12-02T04:54:33.559Z,4.00
2018-12-02T04:57:01.857Z,4.00
2018-12-02T04:59:30.120Z,4.00
2018-12-02T05:01:58.399Z,4.10
2018-12-02T05:04:26.677Z,4.10
2018-12-02T05:06:55.163Z,4.20
2018-12-02T05:09:23.512Z,4.20
2018-12-02T05:11:51.786Z,4.20
2018-12-02T05:14:20.067Z,4.30
2018-12-02T05:16:48.342Z,4.30
2018-12-02T05:19:16.623Z,4.20
2018-12-02T05:21:44.907Z,4.20
2018-12-02T05:24:13.190Z,4.20
2018-12-02T05:26:41.451Z,4.30
2018-12-02T05:29:09.720Z,4.30
2018-12-02T05:31:37.979Z,4.30
2018-12-02T05:34:06.264Z,4.30
2018-12-02T05:36:34.540Z,4.30
2018-12-02T05:39:02.891Z,4.40
2018-12-02T05:41:36.577Z,4.40
2018-12-02T05:44:04.846Z,4.50
2018-12-02T05:46:33.102Z,4.40
2018-12-02T05:49:01.378Z,4.30
2018-12-02T05:51:29.622Z,4.40
2018-12-02T05:53:57.894Z,4.40
2018-12-02T05:56:26.213Z,4.40
2018-12-02T05:58:54.434Z,4.40
2018-12-02T06:01:22.690Z,4.40
2018-12-02T06:03:50.959Z,4.50
2018-12-02T06:06:19.231Z,4.50
2018-12-02T06:08:47.518Z,4.50
2018-12-02T06:11:15.778Z,4.50
2018-12-02T06:13:44.123Z,4.50
2018-12-02T06:16:12.387Z,4.50
2018-12-02T06:18:40.659Z,4.40
2018-12-02T06:21:08.940Z,4.40
2018-12-02T06:23:37.211Z,4.40
2018-12-02T06:26:05.527Z,4.50
2018-12-02T06:28:33.819Z,4.50
2018-12-02T06:31:02.086Z,4.40
2018-12-02T06:33:30.342Z,4.40
2018-12-02T06:35:58.672Z,4.40
2018-12-02T06:38:26.932Z,4.30
2018-12-02T06:40:55.219Z,4.30
2018-12-02T06:43:23.496Z,4.40
2018-12-02T06:45:51.806Z,4.50
2018-12-02T06:48:20.080Z,4.60
2018-12-02T06:50:48.432Z,4.70
2018-12-02T06:53:16.702Z,4.70
2018-12-02T06:55:55.226Z,4.70
2018-12-02T06:58:38.271Z,4.70
2018-12-02T07:01:22.054Z,4.70
2018-12-02T07:03:57.358Z,4.80
2018-12-02T07:06:25.627Z,4.90
2018-12-02T07:08:53.906Z,5.00
2018-12-02T07:11:22.195Z,5.00
2018-12-02T07:13:50.482Z,4.90
2018-12-02T07:16:18.775Z,5.00
2018-12-02T07:18:51.806Z,5.10
2018-12-02T07:21:23.975Z,5.10
2018-12-02T07:23:54.889Z,5.20
2018-12-02T07:26:25.170Z,5.20
2018-12-02T07:28:53.431Z,5.30
2018-12-02T07:31:21.727Z,5.30
2018-12-02T07:33:49.983Z,5.30
2018-12-02T07:36:18.265Z,5.20
2018-12-02T07:39:11.999Z,5.20
2018-12-02T07:41:40.267Z,5.10
2018-12-02T07:44:08.539Z,5.20
2018-12-02T07:46:36.827Z,5.20
2018-12-02T07:49:05.163Z,5.20
2018-12-02T07:51:33.440Z,5.20
2018-12-02T07:54:01.715Z,5.20
2018-12-02T07:56:29.983Z,5.20
2018-12-02T07:58:58.324Z,5.20
2018-12-02T08:01:26.635Z,5.30
2018-12-02T08:03:54.916Z,5.30
2018-12-02T08:06:23.195Z,5.30
2018-12-02T08:08:51.484Z,5.30
2018-12-02T08:11:19.776Z,5.30
2018-12-02T08:13:48.064Z,5.40
2018-12-02T08:16:16.348Z,5.50
2018-12-02T08:18:44.631Z,5.60
2018-12-02T08:21:12.911Z,5.60
2018-12-02T08:23:41.187Z,5.70
2018-12-02T08:26:09.464Z,5.70
2018-12-02T08:28:37.763Z,5.70
2018-12-02T08:31:06.058Z,5.70
2018-12-02T08:33:34.347Z,5.80
2018-12-02T08:36:02.629Z,5.70
2018-12-02T08:38:30.906Z,5.70
2018-12-02T08:40:59.202Z,5.60
2018-12-02T08:43:27.479Z,5.60
2018-12-02T08:45:55.747Z,5.50
2018-12-02T08:48:24.039Z,5.50
2018-12-02T08:50:52.330Z,5.50
2018-12-02T08:53:20.607Z,5.50
2018-12-02T08:55:48.882Z,5.50
2018-12-02T08:58:17.192Z,5.50
2018-12-02T09:00:45.491Z,5.60
2018-12-02T09:03:13.772Z,5.60
2018-12-02T09:05:42.070Z,5.60
2018-12-02T09:08:11.059Z,5.70
2018-12-02T09:10:39.423Z,5.70
2018-12-02T09:13:09.435Z,5.80
2018-12-02T09:15:37.710Z,5.80
2018-12-02T09:18:08.022Z,5.90
2018-12-02T09:20:36.323Z,5.90
2018-12-02T09:23:05.442Z,6.00
2018-12-02T09:25:33.809Z,6.00
2018-12-02T09:28:02.662Z,6.00
2018-12-02T09:30:32.230Z,6.00
2018-12-02T09:33:00.518Z,6.00
2018-12-02T09:35:28.795Z,6.00
2018-12-02T09:37:57.096Z,5.90
2018-12-02T09:40:25.386Z,5.90
2018-12-02T09:42:54.506Z,5.90
2018-12-02T09:45:24.672Z,5.80
2018-12-02T09:47:53.462Z,5.90
2018-12-02T09:50:21.755Z,6.10
2018-12-02T09:52:50.037Z,6.10
2018-12-02T09:55:19.746Z,6.10
2018-12-02T09:57:48.279Z,6.10
2018-12-02T10:00:17.696Z,6.10
2018-12-02T10:02:46.087Z,6.10
2018-12-02T10:05:14.390Z,6.10
2018-12-02T10:07:42.691Z,6.10
2018-12-02T10:10:14.200Z,6.10
2018-12-02T10:12:43.546Z,6.20
2018-12-02T10:15:13.003Z,6.10
2018-12-02T10:17:41.276Z,6.20
2018-12-02T10:20:13.763Z,6.20
2018-12-02T10:22:42.160Z,6.30
2018-12-02T10:25:12.578Z,6.30
2018-12-02T10:27:40.871Z,6.40
2018-12-02T10:30:25.299Z,6.50
2018-12-02T10:32:54.496Z,6.50
2018-12-02T10:35:22.811Z,6.70
2018-12-02T10:37:51.623Z,6.70
2018-12-02T10:40:20.846Z,6.80
2018-12-02T10:42:49.141Z,6.80
2018-12-02T10:45:20.170Z,6.90
2018-12-02T10:47:48.982Z,7.00
2018-12-02T10:50:20.330Z,7.10
2018-12-02T10:52:49.063Z,7.10
2018-12-02T10:55:23.169Z,7.10
2018-12-02T10:57:51.479Z,7.10
2018-12-02T11:00:25.035Z,7.20
2018-12-02T11:02:53.331Z,7.30
2018-12-02T11:05:21.627Z,7.30
2018-12-02T11:07:49.922Z,7.40
2018-12-02T11:10:18.202Z,7.50
2018-12-02T11:12:46.484Z,7.40
2018-12-02T11:15:15.640Z,7.40
2018-12-02T11:17:44.809Z,7.40
2018-12-02T11:20:14.263Z,7.50
2018-12-02T11:22:42.514Z,7.50
2018-12-02T11:25:12.650Z,7.60
2018-12-02T11:27:40.975Z,7.60
2018-12-02T11:30:13.248Z,7.60
2018-12-02T11:32:41.698Z,7.50
2018-12-02T11:35:11.352Z,7.60
2018-12-02T11:37:39.651Z,7.60
2018-12-02T11:40:28.130Z,7.60
2018-12-02T11:42:56.612Z,7.70
2018-12-02T11:45:24.944Z,7.70
2018-12-02T11:47:54.055Z,7.70
2018-12-02T11:50:25.158Z,7.70
2018-12-02T11:52:53.442Z,7.70
2018-12-02T11:55:22.451Z,7.70
2018-12-02T11:57:50.876Z,7.60
2018-12-02T12:00:28.004Z,7.70
2018-12-02T12:02:57.063Z,7.70
2018-12-02T12:05:25.406Z,7.70
2018-12-02T12:07:53.718Z,7.80
2018-12-02T12:10:24.771Z,7.80
2018-12-02T12:12:54.903Z,7.80
2018-12-02T12:15:24.166Z,7.80
2018-12-02T12:17:52.703Z,7.90
2018-12-02T12:20:24.775Z,7.80
2018-12-02T12:22:53.107Z,7.90
2018-12-02T12:25:21.426Z,8.00
2018-12-02T12:27:50.386Z,8.00
2018-12-02T12:30:20.990Z,7.90
2018-12-02T12:32:50.140Z,7.90
2018-12-02T12:35:18.947Z,7.90
2018-12-02T12:37:47.249Z,7.90
2018-12-02T12:40:20.622Z,7.90
2018-12-02T12:42:53.388Z,7.90
2018-12-02T12:45:21.675Z,7.90
2018-12-02T12:47:49.959Z,7.90
2018-12-02T12:50:18.255Z,8.00
2018-12-02T12:52:46.578Z,8.00
2018-12-02T12:55:16.711Z,8.00
2018-12-02T12:57:45.288Z,8.10
2018-12-02T13:00:15.694Z,8.10
2018-12-02T13:02:43.983Z,8.20
2018-12-02T13:05:14.312Z,8.30
2018-12-02T13:07:42.594Z,8.30
2018-12-02T13:10:12.694Z,8.40
2018-12-02T13:12:41.036Z,8.40
2018-12-02T13:15:11.470Z,8.50
2018-12-02T13:17:39.843Z,8.60
2018-12-02T13:20:17.114Z,8.70
2018-12-02T13:22:45.421Z,8.90
2018-12-02T13:25:14.619Z,8.90
2018-12-02T13:27:43.840Z,8.90
2018-12-02T13:30:13.231Z,8.90
2018-12-02T13:32:41.565Z,9.00
2018-12-02T13:35:10.375Z,9.00
2018-12-02T13:37:38.684Z,9.00
2018-12-02T13:40:14.478Z,9.00
2018-12-02T13:42:43.802Z,9.00
2018-12-02T13:45:13.531Z,9.00
2018-12-02T13:47:41.823Z,9.10
2018-12-02T13:50:11.684Z,9.10
2018-12-02T13:52:39.952Z,9.20
2018-12-02T13:55:11.409Z,9.30
2018-12-02T13:57:39.706Z,9.30
2018-12-02T14:00:15.196Z,9.40
2018-12-02T14:02:44.406Z,9.50
2018-12-02T14:05:12.720Z,9.50
2018-12-02T14:07:41.015Z,9.60
2018-12-02T14:10:12.931Z,9.60
2018-12-02T14:12:42.605Z,9.70
2018-12-02T14:17:22.706Z,9.60
2018-12-02T14:19:50.995Z,9.60
2018-12-02T14:22:19.286Z,9.50
2018-12-02T14:24:47.554Z,9.60
2018-12-02T14:27:15.845Z,9.70
2018-12-02T14:29:48.866Z,9.80
2018-12-02T14:32:17.850Z,9.80
2018-12-02T14:34:46.178Z,9.90
2018-12-02T14:37:14.462Z,9.90
2018-12-02T14:39:42.746Z,10.00
2018-12-02T14:42:11.049Z,10.00
2018-12-02T14:44:39.348Z,10.00
2018-12-02T14:47:07.700Z,10.00
2018-12-02T14:49:35.992Z,10.00
2018-12-02T14:52:04.306Z,10.10
2018-12-02T14:54:32.595Z,10.10
2018-12-02T14:57:00.883Z,10.10
2018-12-02T14:59:29.275Z,10.10
2018-12-02T15:01:57.547Z,10.10
2018-12-02T15:04:25.826Z,10.10
2018-12-02T15:06:54.095Z,10.20
2018-12-02T15:09:22.388Z,10.20
2018-12-02T15:11:54.904Z,10.20
2018-12-02T15:14:23.188Z,10.20
2018-12-02T15:16:51.466Z,10.20
2018-12-02T15:19:19.735Z,10.20
2018-12-02T15:21:48.040Z,10.20
2018-12-02T15:24:16.319Z,10.20
2018-12-02T15:26:44.616Z,10.20
2018-12-02T15:29:12.980Z,10.30
2018-12-02T15:31:41.267Z,10.30
2018-12-02T15:34:09.552Z,10.30
2018-12-02T15:36:37.843Z,10.30
2018-12-02T15:39:09.321Z,10.30
2018-12-02T15:41:37.748Z,10.30
2018-12-02T15:44:06.682Z,10.30
2018-12-02T15:46:35.040Z,10.40
2018-12-02T15:49:03.315Z,10.40
2018-12-02T15:51:31.599Z,10.50
2018-12-02T15:53:59.913Z,10.50
2018-12-02T15:56:28.184Z,10.40
2018-12-02T15:58:56.464Z,10.50
2018-12-02T16:01:26.900Z,10.50
2018-12-02T16:03:58.744Z,10.60
2018-12-02T16:06:27.013Z,10.60
2018-12-02T16:08:55.320Z,10.60
2018-12-02T16:11:23.609Z,10.60
2018-12-02T16:13:51.907Z,10.50
2018-12-02T16:16:20.194Z,10.50
2018-12-02T16:18:48.471Z,10.50
2018-12-02T16:21:25.027Z,10.50
2018-12-02T16:23:53.412Z,10.50
2018-12-02T16:26:21.674Z,10.50
2018-12-02T16:28:49.947Z,10.50
2018-12-02T16:31:18.494Z,10.50
2018-12-02T16:33:46.775Z,10.50
2018-12-02T16:36:15.107Z,10.50
2018-12-02T16:38:43.399Z,10.60
2018-12-02T16:41:11.699Z,10.60
2018-12-02T16:43:39.979Z,10.60
2018-12-02T16:46:08.300Z,10.70
2018-12-02T16:48:36.659Z,10.60
2018-12-02T16:51:04.951Z,10.70
2018-12-02T16:53:33.232Z,10.70
2018-12-02T16:56:06.409Z,10.70
2018-12-02T16:59:40.279Z,10.60
2018-12-02T17:02:09.882Z,10.70
2018-12-02T17:04:38.375Z,10.70
2018-12-02T17:07:06.707Z,10.70
2018-12-02T17:09:34.987Z,10.70
2018-12-02T17:12:03.287Z,10.70
2018-12-02T17:14:31.555Z,10.70
2018-12-02T17:16:59.835Z,10.70
2018-12-02T17:19:28.135Z,10.70
2018-12-02T17:21:56.428Z,10.70
2018-12-02T17:24:24.699Z,10.70
2018-12-02T17:26:52.975Z,10.70
2018-12-02T17:29:21.685Z,10.70
2018-12-02T17:31:52.642Z,10.70
2018-12-02T17:34:20.951Z,10.80
2018-12-02T17:36:49.263Z,10.80
2018-12-02T17:39:24.203Z,10.80
2018-12-02T17:42:04.476Z,10.80
2018-12-02T17:44:32.771Z,10.70
2018-12-02T17:47:01.084Z,10.80
2018-12-02T17:49:30.430Z,10.80
2018-12-02T17:51:58.714Z,10.70
2018-12-02T17:54:26.994Z,10.80
2018-12-02T17:56:55.271Z,10.80
2018-12-02T17:59:23.551Z,10.70
2018-12-02T18:01:51.827Z,10.70
2018-12-02T18:04:20.101Z,10.60
2018-12-02T18:06:48.427Z,10.60
2018-12-02T18:09:16.738Z,10.50
2018-12-02T18:11:45.030Z,10.50
2018-12-02T18:14:20.131Z,10.40
2018-12-02T18:16:50.227Z,10.40
2018-12-02T18:19:16.690Z,10.40
2018-12-02T18:21:44.963Z,10.40
2018-12-02T18:24:13.251Z,10.30
2018-12-02T18:26:41.526Z,10.20
2018-12-02T18:29:09.794Z,10.20
2018-12-02T18:31:38.075Z,10.20
2018-12-02T18:34:06.451Z,10.20
2018-12-02T18:36:36.142Z,10.20
2018-12-02T18:39:10.387Z,10.20
2018-12-02T18:41:40.735Z,10.20
2018-12-02T18:44:10.913Z,10.30
2018-12-02T18:46:39.209Z,10.30
2018-12-02T18:49:07.487Z,10.30
2018-12-02T18:51:35.766Z,10.40
2018-12-02T18:54:04.091Z,10.40
2018-12-02T18:56:32.364Z,10.50
2018-12-02T18:59:00.656Z,10.50
2018-12-02T19:01:28.948Z,10.60
2018-12-02T19:03:57.218Z,10.60
2018-12-02T19:06:28.308Z,10.50
2018-12-02T19:08:53.835Z,10.60
2018-12-02T19:11:22.181Z,10.60
2018-12-02T19:13:52.351Z,10.60
2018-12-02T19:16:19.377Z,10.60
2018-12-02T19:18:48.945Z,10.70
2018-12-02T19:21:20.503Z,10.70
2018-12-02T19:23:48.775Z,10.80
2018-12-02T19:26:17.043Z,10.80
2018-12-02T19:28:45.325Z,10.90
2018-12-02T19:31:13.603Z,10.90
2018-12-02T19:33:42.119Z,10.90
2018-12-02T19:36:29.344Z,10.90
2018-12-02T19:38:57.610Z,11.00
2018-12-02T19:41:25.883Z,10.90
2018-12-02T19:43:54.162Z,11.00
2018-12-02T19:46:22.446Z,11.00
2018-12-02T19:48:51.002Z,11.10
2018-12-02T19:51:19.291Z,11.10
2018-12-02T19:53:47.574Z,11.10
2018-12-02T19:56:15.839Z,11.20
2018-12-02T19:58:44.114Z,11.10
2018-12-02T20:01:12.403Z,11.10
2018-12-02T20:03:40.706Z,11.10
2018-12-02T20:06:09.016Z,11.20
2018-12-02T20:08:37.278Z,11.20
2018-12-02T20:11:05.789Z,11.20
2018-12-02T20:13:34.087Z,11.30
2018-12-02T20:16:07.723Z,11.30
2018-12-02T20:18:36.013Z,11.30
2018-12-02T20:21:04.375Z,11.40
2018-12-02T20:23:37.881Z,11.40
2018-12-02T20:26:06.181Z,11.40
2018-12-02T20:28:38.062Z,11.40
2018-12-02T20:31:09.510Z,11.30
2018-12-02T20:33:37.811Z,11.40
2018-12-02T20:36:06.731Z,11.40
2018-12-02T20:38:35.018Z,11.40
2018-12-02T20:41:03.318Z,11.50
2018-12-02T20:43:31.594Z,11.40
2018-12-02T20:45:59.867Z,11.40
2018-12-02T20:48:28.151Z,11.50
2018-12-02T20:50:56.435Z,11.50
2018-12-02T20:53:24.750Z,11.50
2018-12-02T20:55:53.249Z,11.50
2018-12-02T20:58:21.527Z,11.50
2018-12-02T21:00:49.840Z,11.50
2018-12-02T21:03:20.651Z,11.50
2018-12-02T21:05:53.052Z,11.60
2018-12-02T21:08:21.319Z,11.50
2018-12-02T21:10:49.611Z,11.60
2018-12-02T21:13:17.882Z,11.50
2018-12-02T21:15:46.154Z,11.50
2018-12-02T21:18:14.439Z,11.50
2018-12-02T21:20:42.711Z,11.50
2018-12-02T21:23:10.981Z,11.40
2018-12-02T21:25:39.254Z,11.40
2018-12-02T21:28:08.415Z,11.20
2018-12-02T21:30:36.698Z,11.10
2018-12-02T21:33:05.231Z,11.10
2018-12-02T21:35:33.512Z,11.00
2018-12-02T21:38:01.794Z,10.90
2018-12-02T21:40:30.070Z,10.90
2018-12-02T21:42:58.355Z,10.90
2018-12-02T21:45:26.622Z,10.80
2018-12-02T21:47:55.724Z,10.80
2018-12-02T21:50:27.044Z,10.80
2018-12-02T21:52:55.930Z,10.90
2018-12-02T21:55:25.245Z,10.80
2018-12-02T21:57:53.526Z,10.80
2018-12-02T22:00:26.992Z,10.70
2018-12-02T22:02:55.264Z,10.70
2018-12-02T22:05:23.558Z,10.70
2018-12-02T22:07:52.213Z,10.60
2018-12-02T22:10:25.398Z,10.70
2018-12-02T22:12:53.748Z,10.60
2018-12-02T22:15:22.041Z,10.50
2018-12-02T22:17:50.386Z,10.50
2018-12-02T22:20:18.651Z,10.60
2018-12-02T22:22:46.945Z,10.50
2018-12-02T22:25:16.176Z,10.50
2018-12-02T22:27:47.430Z,10.50
2018-12-02T22:30:16.667Z,10.50
2018-12-02T22:32:45.035Z,10.40
2018-12-02T22:35:14.132Z,10.50
2018-12-02T22:37:42.790Z,10.50
2018-12-02T22:40:25.875Z,10.50
2018-12-02T22:42:55.028Z,10.40
2018-12-02T22:45:24.311Z,10.40
2018-12-02T22:47:52.618Z,10.40
2018-12-02T22:50:21.814Z,10.40
2018-12-02T22:52:51.056Z,10.40
2018-12-02T22:55:19.510Z,10.40
2018-12-02T22:57:47.799Z,10.30
2018-12-02T23:00:30.266Z,10.40
2018-12-02T23:03:06.775Z,10.30
2018-12-02T23:05:35.098Z,10.30
2018-12-02T23:08:03.398Z,10.30
2018-12-02T23:10:31.735Z,10.30
2018-12-02T23:13:00.065Z,10.20
2018-12-02T23:15:28.429Z,10.20
2018-12-02T23:17:56.746Z,10.20
2018-12-02T23:20:25.130Z,10.20
2018-12-02T23:22:53.438Z,10.30
2018-12-02T23:25:21.748Z,10.30
2018-12-02T23:27:50.086Z,10.20
2018-12-02T23:30:20.313Z,10.20
2018-12-02T23:32:48.688Z,10.20
2018-12-02T23:35:16.996Z,10.10
2018-12-02T23:37:45.294Z,10.10
2018-12-02T23:40:21.728Z,10.00
2018-12-02T23:42:50.041Z,10.00
2018-12-02T23:45:18.531Z,10.10
2018-12-02T23:47:46.888Z,10.00
2018-12-02T23:50:18.147Z,10.00
2018-12-02T23:52:46.482Z,10.00
2018-12-02T23:55:16.028Z,10.00
2018-12-02T23:57:44.396Z,10.00
